createdAt,value
2022-12-23T00:01:28.175Z,11.43
2022-12-23T00:03:58.756Z,10.60
2022-12-23T00:06:27.089Z,11.73
2022-12-23T00:08:59.205Z,10.30
2022-12-23T00:11:28.166Z,13.53
2022-12-23T00:14:20.445Z,12.00
2022-12-23T00:16:49.608Z,11.97
2022-12-23T00:19:19.933Z,11.60
2022-12-23T00:21:49.209Z,11.17
2022-12-23T00:24:18.198Z,10.87
2022-12-23T00:26:46.057Z,11.10
2022-12-23T00:29:18.267Z,10.90
2022-12-23T00:31:47.770Z,10.47
2022-12-23T00:34:26.104Z,10.47
2022-12-23T00:36:59.572Z,10.37
2022-12-23T00:39:57.722Z,10.97
2022-12-23T00:42:48.648Z,11.43
2022-12-23T00:45:19.492Z,10.50
2022-12-23T00:48:07.039Z,10.17
2022-12-23T00:50:41.925Z,11.67
2022-12-23T00:53:13.243Z,10.87
2022-12-23T00:55:42.464Z,11.33
2022-12-23T00:58:10.574Z,11.10
2022-12-23T01:00:58.406Z,12.23
2022-12-23T01:03:51.582Z,13.10
2022-12-23T01:06:19.178Z,12.63
2022-12-23T01:08:47.186Z,13.07
2022-12-23T01:11:14.915Z,13.50
2022-12-23T01:13:42.474Z,13.53
2022-12-23T01:16:16.822Z,13.37
2022-12-23T01:18:45.629Z,13.43
2022-12-23T01:21:15.896Z,12.37
2022-12-23T01:23:43.640Z,12.30
2022-12-23T01:26:12.394Z,16.50
2022-12-23T01:28:40.613Z,13.60
2022-12-23T01:31:12.276Z,13.37
2022-12-23T01:33:44.604Z,12.83
2022-12-23T01:36:15.714Z,11.00
2022-12-23T01:38:52.871Z,12.83
2022-12-23T01:41:46.763Z,11.07
2022-12-23T01:44:58.028Z,11.30
2022-12-23T01:47:44.030Z,11.83
2022-12-23T01:50:42.144Z,10.80
2022-12-23T01:53:15.744Z,11.80
2022-12-23T01:55:49.081Z,11.43
2022-12-23T01:58:21.191Z,12.20
2022-12-23T02:01:07.424Z,12.67
2022-12-23T02:03:44.019Z,12.80
2022-12-23T02:06:37.477Z,12.07
2022-12-23T02:09:18.471Z,12.43
2022-12-23T02:12:15.648Z,12.87
2022-12-23T02:15:16.379Z,11.50
2022-12-23T02:17:49.354Z,12.00
2022-12-23T02:20:53.695Z,12.07
2022-12-23T02:23:33.599Z,12.67
2022-12-23T02:26:10.235Z,10.67
2022-12-23T02:28:52.096Z,12.07
2022-12-23T02:31:27.829Z,12.50
2022-12-23T02:34:01.465Z,15.20
2022-12-23T02:36:57.892Z,15.13
2022-12-23T02:39:42.938Z,15.30
2022-12-23T02:42:17.169Z,15.10
2022-12-23T02:44:57.620Z,15.43
2022-12-23T02:47:30.837Z,13.30
2022-12-23T02:50:05.747Z,15.60
2022-12-23T02:52:39.756Z,15.93
2022-12-23T02:55:21.065Z,15.88
2022-12-23T02:57:55.769Z,15.27
2022-12-23T03:00:23.504Z,16.17
2022-12-23T03:02:51.334Z,15.65
2022-12-23T03:05:43.518Z,15.90
2022-12-23T03:08:19.417Z,15.68
2022-12-23T03:11:06.853Z,16.25
2022-12-23T03:13:55.531Z,15.40
2022-12-23T03:16:40.981Z,12.93
2022-12-23T03:19:27.124Z,12.43
2022-12-23T03:22:22.057Z,12.53
2022-12-23T03:24:56.870Z,11.97
2022-12-23T03:27:51.787Z,11.50
2022-12-23T03:30:23.432Z,12.20
2022-12-23T03:33:04.735Z,12.33
2022-12-23T03:35:45.393Z,11.67
2022-12-23T03:38:23.386Z,12.30
2022-12-23T03:41:01.769Z,12.00
2022-12-23T03:44:02.056Z,11.30
2022-12-23T03:46:53.455Z,11.27
2022-12-23T03:49:34.712Z,12.03
2022-12-23T03:52:25.510Z,11.27
2022-12-23T03:55:00.206Z,12.23
2022-12-23T03:57:48.999Z,12.07
2022-12-23T04:00:27.173Z,13.30
2022-12-23T04:03:28.515Z,12.63
2022-12-23T04:08:53.934Z,12.30
2022-12-23T04:14:30.251Z,12.93
2022-12-23T04:17:15.421Z,13.50
2022-12-23T04:22:47.132Z,13.73
2022-12-23T04:25:20.512Z,14.00
2022-12-23T04:28:07.355Z,16.03
2022-12-23T04:41:26.357Z,16.93
2022-12-23T04:43:53.639Z,17.60
2022-12-23T04:46:20.995Z,17.70
2022-12-23T04:48:48.010Z,17.77
2022-12-23T04:51:15.115Z,18.20
2022-12-23T04:53:41.948Z,17.63
2022-12-23T04:56:08.750Z,18.50
2022-12-23T04:58:35.585Z,18.07
2022-12-23T05:01:05.765Z,18.13
2022-12-23T05:03:33.315Z,19.40
2022-12-23T05:06:00.502Z,19.23
2022-12-23T05:08:27.784Z,19.37
2022-12-23T05:10:54.721Z,19.40
2022-12-23T05:13:21.848Z,20.07
2022-12-23T05:15:53.405Z,20.20
2022-12-23T05:18:21.523Z,19.33
2022-12-23T05:20:49.472Z,19.73
2022-12-23T05:23:16.389Z,20.43
2022-12-23T05:25:43.291Z,19.67
2022-12-23T05:28:10.345Z,20.37
2022-12-23T05:30:37.266Z,21.10
2022-12-23T05:33:04.128Z,20.63
2022-12-23T05:35:31.025Z,21.03
2022-12-23T05:37:58.760Z,19.50
2022-12-23T05:40:29.102Z,20.33
2022-12-23T05:42:59.495Z,20.87
2022-12-23T05:45:26.599Z,19.33
2022-12-23T05:47:53.768Z,19.20
2022-12-23T05:50:20.576Z,19.60
2022-12-23T05:52:47.405Z,18.33
2022-12-23T05:55:14.204Z,18.43
2022-12-23T05:57:41.079Z,19.10
2022-12-23T06:00:08.641Z,18.93
2022-12-23T06:02:35.668Z,19.20
2022-12-23T06:05:02.683Z,19.00
2022-12-23T06:07:29.586Z,18.50
2022-12-23T06:09:56.629Z,18.73
2022-12-23T06:12:23.614Z,19.13
2022-12-23T06:14:50.430Z,19.37
2022-12-23T06:17:17.281Z,20.30
2022-12-23T06:19:44.150Z,18.73
2022-12-23T06:22:11.012Z,19.23
2022-12-23T06:24:38.292Z,19.17
2022-12-23T06:27:05.155Z,19.53
2022-12-23T06:29:32.164Z,20.00
2022-12-23T06:31:59.170Z,20.67
2022-12-23T06:34:26.136Z,21.27
2022-12-23T06:36:53.059Z,20.00
2022-12-23T06:39:20.383Z,21.03
2022-12-23T06:41:47.508Z,20.70
2022-12-23T06:44:14.519Z,21.07
2022-12-23T06:46:41.545Z,20.23
2022-12-23T06:49:13.119Z,21.20
2022-12-23T06:51:40.763Z,21.17
2022-12-23T06:54:09.820Z,20.37
2022-12-23T06:56:36.643Z,21.43
2022-12-23T06:59:03.620Z,21.83
2022-12-23T07:01:30.531Z,20.73
2022-12-23T07:03:57.627Z,21.13
2022-12-23T07:06:24.472Z,21.00
2022-12-23T07:08:51.493Z,20.10
2022-12-23T07:11:18.661Z,21.57
2022-12-23T07:13:47.020Z,21.30
2022-12-23T07:16:14.040Z,21.10
2022-12-23T07:18:41.004Z,20.53
2022-12-23T07:21:13.979Z,22.20
2022-12-23T07:23:48.023Z,21.60
2022-12-23T07:26:14.958Z,21.87
2022-12-23T07:28:46.891Z,21.40
2022-12-23T07:31:14.024Z,22.03
2022-12-23T07:33:40.939Z,23.00
2022-12-23T07:36:08.104Z,21.50
2022-12-23T07:38:34.944Z,22.37
2022-12-23T07:41:01.741Z,22.60
2022-12-23T07:43:28.531Z,23.43
2022-12-23T07:45:59.804Z,21.80
2022-12-23T07:48:27.406Z,22.77
2022-12-23T07:50:59.703Z,22.23
2022-12-23T07:53:26.725Z,22.67
2022-12-23T07:55:56.662Z,24.07
2022-12-23T07:58:24.044Z,24.17
2022-12-23T08:00:50.909Z,24.57
2022-12-23T08:03:18.068Z,23.10
2022-12-23T08:05:44.952Z,25.33
2022-12-23T08:08:12.817Z,26.23
2022-12-23T08:10:46.140Z,22.93
2022-12-23T08:13:15.206Z,24.53
2022-12-23T08:15:42.003Z,24.83
2022-12-23T08:18:08.929Z,25.13
2022-12-23T08:20:35.743Z,26.10
2022-12-23T08:23:02.678Z,27.47
2022-12-23T08:25:29.508Z,27.10
2022-12-23T08:27:56.279Z,26.03
2022-12-23T08:30:23.112Z,25.73
2022-12-23T08:32:49.952Z,25.23
2022-12-23T08:35:17.093Z,25.20
2022-12-23T08:37:43.940Z,25.73
2022-12-23T08:40:12.245Z,25.10
2022-12-23T08:42:39.064Z,26.03
2022-12-23T08:45:06.222Z,23.87
2022-12-23T08:47:33.084Z,20.50
2022-12-23T08:49:59.918Z,23.20
2022-12-23T08:52:26.755Z,20.47
2022-12-23T08:54:53.573Z,20.43
2022-12-23T08:57:20.468Z,21.27
2022-12-23T08:59:48.420Z,19.80
2022-12-23T09:02:15.437Z,26.48
2022-12-23T09:04:42.696Z,23.87
2022-12-23T09:07:09.603Z,21.93
2022-12-23T09:09:38.159Z,20.33
2022-12-23T09:12:05.154Z,21.30
2022-12-23T09:14:32.110Z,22.00
2022-12-23T09:16:58.952Z,18.93
2022-12-23T09:19:27.032Z,21.33
2022-12-23T09:21:53.999Z,23.77
2022-12-23T09:24:20.878Z,24.35
2022-12-23T09:26:47.787Z,28.48
2022-12-23T09:29:14.599Z,48.35
2022-12-23T09:31:41.559Z,42.25
2022-12-23T09:34:11.476Z,24.85
2022-12-23T09:36:38.252Z,19.30
2022-12-23T09:39:05.079Z,23.98
2022-12-23T09:42:03.436Z,24.77
2022-12-23T09:44:30.530Z,21.23
2022-12-23T09:47:02.219Z,21.70
2022-12-23T09:49:29.466Z,23.27
2022-12-23T09:52:02.851Z,22.47
2022-12-23T09:54:48.792Z,30.83
2022-12-23T09:57:46.097Z,130.27
2022-12-23T10:00:18.834Z,28.07
2022-12-23T10:03:23.997Z,26.30
2022-12-23T10:06:08.772Z,25.00
2022-12-23T10:08:51.871Z,22.87
2022-12-23T10:11:24.857Z,27.55
2022-12-23T10:14:00.321Z,22.57
2022-12-23T10:16:34.903Z,20.23
2022-12-23T10:19:15.223Z,20.97
2022-12-23T10:21:48.254Z,19.80
2022-12-23T10:24:25.039Z,19.73
2022-12-23T10:26:58.121Z,21.13
2022-12-23T10:29:35.978Z,20.03
2022-12-23T10:32:29.401Z,20.87
2022-12-23T10:35:33.457Z,20.47
2022-12-23T10:38:24.525Z,24.83
2022-12-23T10:41:17.055Z,21.40
2022-12-23T10:43:44.503Z,20.80
2022-12-23T10:46:22.204Z,20.27
2022-12-23T10:49:23.212Z,22.07
2022-12-23T10:51:57.985Z,20.83
2022-12-23T10:54:29.819Z,20.90
2022-12-23T10:57:00.732Z,21.97
2022-12-23T10:59:37.612Z,21.90
2022-12-23T11:02:28.412Z,22.40
2022-12-23T11:04:55.780Z,21.87
2022-12-23T11:07:44.287Z,22.37
2022-12-23T11:10:19.910Z,22.97
2022-12-23T11:12:51.597Z,23.77
2022-12-23T11:15:54.730Z,22.60
2022-12-23T11:18:22.821Z,23.17
2022-12-23T11:21:08.325Z,23.87
2022-12-23T11:23:37.091Z,23.20
2022-12-23T11:26:10.858Z,25.10
2022-12-23T11:28:48.373Z,22.87
2022-12-23T11:31:17.701Z,23.77
2022-12-23T11:34:01.427Z,24.27
2022-12-23T11:36:31.816Z,23.90
2022-12-23T11:39:15.709Z,24.27
2022-12-23T11:41:50.190Z,23.23
2022-12-23T11:44:48.042Z,25.40
2022-12-23T11:47:26.508Z,24.20
2022-12-23T11:50:22.503Z,26.17
2022-12-23T11:52:56.902Z,25.07
2022-12-23T11:55:30.343Z,24.10
2022-12-23T11:57:58.053Z,25.47
2022-12-23T12:00:37.379Z,25.67
2022-12-23T12:03:10.826Z,25.57
2022-12-23T12:05:44.059Z,25.17
2022-12-23T12:08:16.624Z,24.83
2022-12-23T12:10:45.494Z,24.53
2022-12-23T12:13:39.873Z,23.87
2022-12-23T12:16:15.915Z,24.90
2022-12-23T12:18:48.037Z,24.40
2022-12-23T12:21:31.375Z,24.00
2022-12-23T12:24:25.444Z,24.13
2022-12-23T12:26:57.955Z,27.03
2022-12-23T12:29:34.761Z,24.70
2022-12-23T12:32:05.980Z,25.07
2022-12-23T12:34:57.953Z,25.07
2022-12-23T12:37:45.170Z,25.20
2022-12-23T12:40:25.781Z,25.57
2022-12-23T12:43:26.242Z,25.13
2022-12-23T12:46:10.941Z,25.73
2022-12-23T12:48:41.484Z,26.20
2022-12-23T12:51:32.274Z,25.67
2022-12-23T12:54:10.074Z,26.77
2022-12-23T12:56:53.819Z,25.63
2022-12-23T12:59:33.625Z,26.57
2022-12-23T13:02:39.085Z,25.57
2022-12-23T13:05:06.199Z,25.50
2022-12-23T13:07:52.799Z,26.23
2022-12-23T13:10:45.174Z,25.27
2022-12-23T13:13:44.904Z,24.70
2022-12-23T13:16:57.215Z,25.47
2022-12-23T13:19:51.320Z,26.03
2022-12-23T13:22:46.424Z,23.80
2022-12-23T13:25:44.223Z,25.00
2022-12-23T13:28:46.374Z,25.47
2022-12-23T13:31:50.855Z,23.33
2022-12-23T13:34:56.695Z,24.77
2022-12-23T13:37:39.547Z,24.50
2022-12-23T13:40:39.958Z,25.53
2022-12-23T13:43:25.780Z,24.53
2022-12-23T13:45:54.969Z,24.80
2022-12-23T13:48:37.388Z,25.67
2022-12-23T13:51:14.414Z,23.93
2022-12-23T13:53:50.397Z,24.97
2022-12-23T13:56:24.261Z,26.63
2022-12-23T13:58:52.463Z,24.10
2022-12-23T14:01:33.960Z,24.37
2022-12-23T14:04:32.166Z,24.20
2022-12-23T14:07:06.080Z,22.77
2022-12-23T14:09:36.518Z,23.83
2022-12-23T14:12:29.449Z,22.67
2022-12-23T14:15:28.404Z,20.87
2022-12-23T14:18:04.468Z,21.30
2022-12-23T14:21:21.816Z,22.40
2022-12-23T14:24:10.444Z,22.50
2022-12-23T14:26:52.595Z,20.40
2022-12-23T14:29:51.135Z,20.13
2022-12-23T14:32:29.264Z,20.03
2022-12-23T14:35:23.424Z,19.40
2022-12-23T14:38:14.724Z,19.00
2022-12-23T14:41:03.120Z,19.90
2022-12-23T14:43:48.608Z,19.80
2022-12-23T14:46:34.276Z,19.43
2022-12-23T14:49:37.574Z,20.40
2022-12-23T14:52:18.446Z,18.97
2022-12-23T14:55:20.655Z,17.97
2022-12-23T14:57:40.228Z,18.47
2022-12-23T15:00:14.401Z,18.67
2022-12-23T15:02:44.136Z,19.97
2022-12-23T15:05:14.821Z,18.23
2022-12-23T15:07:48.240Z,16.97
2022-12-23T15:10:29.978Z,18.43
2022-12-23T15:13:02.379Z,17.67
2022-12-23T15:15:33.779Z,18.33
2022-12-23T15:18:11.947Z,19.17
2022-12-23T15:20:41.720Z,17.67
2022-12-23T15:23:13.117Z,19.63
2022-12-23T15:25:44.597Z,19.83
2022-12-23T15:28:23.519Z,21.47
2022-12-23T15:31:02.782Z,23.70
2022-12-23T15:34:02.426Z,23.57
2022-12-23T15:36:32.048Z,22.50
2022-12-23T15:39:07.952Z,21.50
2022-12-23T15:41:44.334Z,21.43
2022-12-23T15:44:23.444Z,21.73
2022-12-23T15:46:52.344Z,23.30
2022-12-23T15:49:27.711Z,20.50
2022-12-23T15:52:11.139Z,23.03
2022-12-23T15:55:05.245Z,21.80
2022-12-23T15:57:49.960Z,24.23
2022-12-23T16:00:55.778Z,23.43
2022-12-23T16:03:28.918Z,23.60
2022-12-23T16:06:12.327Z,24.37
2022-12-23T16:08:44.036Z,23.03
2022-12-23T16:11:23.299Z,22.47
2022-12-23T16:14:01.166Z,22.87
2022-12-23T16:16:42.915Z,23.87
2022-12-23T16:19:44.306Z,22.40
2022-12-23T16:22:43.946Z,22.40
2022-12-23T16:25:25.937Z,23.97
2022-12-23T16:28:06.610Z,24.50
2022-12-23T16:30:39.330Z,24.47
2022-12-23T16:33:23.914Z,25.00
2022-12-23T16:35:52.398Z,27.17
2022-12-23T16:38:24.095Z,25.57
2022-12-23T16:40:55.817Z,26.00
2022-12-23T16:43:26.298Z,26.27
2022-12-23T16:45:57.522Z,25.73
2022-12-23T16:48:48.724Z,26.13
2022-12-23T16:51:23.385Z,27.80
2022-12-23T16:53:53.112Z,27.40
2022-12-23T16:56:22.227Z,27.37
2022-12-23T16:58:50.477Z,28.60
2022-12-23T17:01:32.156Z,27.37
2022-12-23T17:04:00.882Z,31.83
2022-12-23T17:06:28.950Z,28.80
2022-12-23T17:08:59.755Z,26.80
2022-12-23T17:11:55.603Z,27.20
2022-12-23T17:14:26.790Z,28.23
2022-12-23T17:16:55.083Z,28.60
2022-12-23T17:19:29.046Z,28.03
2022-12-23T17:22:01.821Z,28.10
2022-12-23T17:24:29.058Z,29.63
2022-12-23T17:27:01.196Z,37.03
2022-12-23T17:29:29.157Z,34.90
2022-12-23T17:31:58.511Z,33.10
2022-12-23T17:34:27.321Z,30.57
2022-12-23T17:36:55.068Z,31.53
2022-12-23T17:39:29.298Z,32.10
2022-12-23T17:47:32.221Z,29.40
2022-12-23T17:50:03.211Z,37.50
2022-12-23T17:52:36.596Z,27.67
2022-12-23T17:55:03.960Z,31.17
2022-12-23T17:57:31.292Z,28.30
2022-12-23T17:59:58.164Z,35.27
2022-12-23T18:02:32.982Z,32.00
2022-12-23T18:05:00.219Z,30.33
2022-12-23T18:07:27.217Z,30.10
2022-12-23T18:09:54.573Z,28.43
2022-12-23T18:12:30.623Z,28.40
2022-12-23T18:14:57.809Z,32.73
2022-12-23T18:17:24.706Z,34.83
2022-12-23T18:19:51.680Z,32.13
2022-12-23T18:22:20.901Z,30.70
2022-12-23T18:24:52.453Z,33.73
2022-12-23T18:27:23.978Z,29.50
2022-12-23T18:29:51.383Z,29.10
2022-12-23T18:32:25.154Z,29.57
2022-12-23T18:34:53.736Z,28.10
2022-12-23T18:37:22.265Z,25.47
2022-12-23T18:39:49.116Z,27.37
2022-12-23T18:42:18.253Z,26.77
2022-12-23T18:44:48.268Z,28.33
2022-12-23T18:47:15.213Z,28.27
2022-12-23T18:49:42.164Z,27.67
2022-12-23T18:52:12.798Z,25.87
2022-12-23T18:54:40.372Z,27.93
2022-12-23T18:57:07.645Z,27.07
2022-12-23T18:59:37.687Z,25.13
2022-12-23T19:02:05.177Z,23.77
2022-12-23T19:04:32.276Z,30.92
2022-12-23T19:06:59.100Z,32.67
2022-12-23T19:09:26.677Z,26.47
2022-12-23T19:11:54.440Z,26.20
2022-12-23T19:14:21.515Z,27.00
2022-12-23T19:16:51.855Z,27.37
2022-12-23T19:19:20.184Z,26.23
2022-12-23T19:21:47.085Z,37.00
2022-12-23T19:24:14.096Z,26.90
2022-12-23T19:26:40.949Z,35.50
2022-12-23T19:29:08.832Z,43.13
2022-12-23T19:31:35.878Z,35.97
2022-12-23T19:34:02.791Z,34.60
2022-12-23T19:36:29.801Z,31.80
2022-12-23T19:38:58.021Z,30.17
2022-12-23T19:41:25.529Z,32.77
2022-12-23T19:43:52.480Z,28.93
2022-12-23T19:46:19.563Z,28.27
2022-12-23T19:48:53.566Z,30.97
2022-12-23T19:51:20.810Z,28.33
2022-12-23T19:53:50.425Z,29.60
2022-12-23T19:56:21.116Z,29.43
2022-12-23T19:58:49.431Z,29.40
2022-12-23T20:01:22.154Z,29.90
2022-12-23T20:03:50.126Z,28.67
2022-12-23T20:06:22.275Z,27.83
2022-12-23T20:08:51.709Z,27.03
2022-12-23T20:11:23.285Z,30.43
2022-12-23T20:13:54.305Z,34.60
2022-12-23T20:16:21.904Z,39.08
2022-12-23T20:18:49.797Z,38.03
2022-12-23T20:21:16.934Z,34.27
2022-12-23T20:23:43.946Z,32.73
2022-12-23T20:26:12.905Z,30.73
2022-12-23T20:28:39.775Z,33.30
2022-12-23T20:31:24.768Z,31.80
2022-12-23T20:33:52.844Z,29.67
2022-12-23T20:36:29.074Z,31.27
2022-12-23T20:38:57.000Z,34.37
2022-12-23T20:41:26.794Z,29.63
2022-12-23T20:44:32.504Z,29.70
2022-12-23T20:46:41.845Z,36.58
2022-12-23T20:49:08.769Z,30.70
2022-12-23T20:51:35.671Z,30.13
2022-12-23T20:54:02.575Z,34.03
2022-12-23T20:56:30.444Z,30.67
2022-12-23T20:58:59.330Z,27.53
2022-12-23T21:01:35.602Z,25.83
2022-12-23T21:04:12.887Z,24.70
2022-12-23T21:06:40.472Z,24.47
2022-12-23T21:09:11.088Z,25.27
2022-12-23T21:11:41.191Z,30.67
2022-12-23T21:14:08.233Z,29.03
2022-12-23T21:16:38.857Z,42.25
2022-12-23T21:19:14.272Z,32.47
2022-12-23T21:21:41.075Z,42.65
2022-12-23T21:24:08.141Z,38.35
2022-12-23T21:26:35.572Z,37.47
2022-12-23T21:29:04.420Z,31.85
2022-12-23T21:31:33.334Z,30.13
2022-12-23T21:34:00.812Z,27.65
2022-12-23T21:36:33.612Z,23.13
2022-12-23T21:39:01.232Z,17.70
2022-12-23T21:41:31.404Z,15.60
2022-12-23T21:43:59.536Z,16.08
2022-12-23T21:46:28.443Z,13.00
2022-12-23T21:48:56.948Z,11.65
2022-12-23T21:51:27.908Z,11.15
2022-12-23T21:53:58.915Z,9.30
2022-12-23T21:56:28.711Z,10.35
2022-12-23T21:59:07.120Z,9.70
2022-12-23T22:01:34.805Z,9.77
2022-12-23T22:06:38.598Z,9.63
2022-12-23T22:09:07.344Z,10.60
2022-12-23T22:11:36.456Z,10.50
2022-12-23T22:14:05.199Z,9.60
2022-12-23T22:16:33.593Z,9.40
2022-12-23T22:19:02.693Z,8.60
2022-12-23T22:21:31.960Z,9.30
2022-12-23T22:23:59.580Z,9.50
2022-12-23T22:26:29.391Z,9.18
2022-12-23T22:28:58.611Z,9.75
2022-12-23T22:31:34.722Z,9.10
2022-12-23T22:34:02.329Z,9.27
2022-12-23T22:36:29.474Z,8.77
2022-12-23T22:38:58.694Z,8.73
2022-12-23T22:41:28.210Z,8.20
2022-12-23T22:43:56.139Z,7.20
2022-12-23T22:46:24.554Z,7.30
2022-12-23T22:48:52.930Z,6.65
2022-12-23T22:51:26.237Z,7.03
2022-12-23T22:53:53.572Z,5.82
2022-12-23T22:56:22.287Z,5.80
2022-12-23T22:58:50.300Z,6.53
2022-12-23T23:01:27.679Z,5.05
2022-12-23T23:03:57.525Z,5.20
2022-12-23T23:06:25.808Z,5.55
2022-12-23T23:08:53.416Z,5.72
2022-12-23T23:11:20.619Z,5.53
2022-12-23T23:13:47.530Z,5.80
2022-12-23T23:16:14.492Z,5.47
2022-12-23T23:18:41.483Z,5.97
2022-12-23T23:21:09.807Z,7.18
2022-12-23T23:23:36.804Z,6.60
2022-12-23T23:26:04.226Z,5.65
2022-12-23T23:28:31.707Z,6.22
2022-12-23T23:31:17.179Z,6.78
2022-12-23T23:33:45.508Z,6.15
2022-12-23T23:36:12.358Z,6.45
2022-12-23T23:38:39.226Z,5.88
2022-12-23T23:41:06.464Z,5.85
2022-12-23T23:43:33.254Z,5.63
2022-12-23T23:46:00.212Z,5.97
2022-12-23T23:48:27.277Z,6.38
2022-12-23T23:51:02.105Z,6.13
2022-12-23T23:53:29.082Z,5.82
2022-12-23T23:56:01.853Z,5.82
2022-12-23T23:58:28.743Z,5.80
